createdAt,value
2022-09-07T00:02:52.623Z,2.03
2022-09-07T00:06:00.410Z,2.00
2022-09-07T00:09:00.594Z,1.88
2022-09-07T00:12:06.442Z,2.53
2022-09-07T00:15:16.852Z,1.97
2022-09-07T00:18:16.291Z,1.90
2022-09-07T00:21:25.875Z,2.47
2022-09-07T00:24:25.258Z,2.10
2022-09-07T00:27:32.475Z,1.90
2022-09-07T00:30:41.453Z,1.80
2022-09-07T00:33:41.589Z,1.70
2022-09-07T00:36:47.448Z,1.90
2022-09-07T00:39:54.485Z,2.00
2022-09-07T00:42:54.246Z,1.90
2022-09-07T00:46:02.506Z,1.83
2022-09-07T00:49:08.339Z,1.87
2022-09-07T00:52:19.692Z,1.80
2022-09-07T00:55:26.457Z,1.70
2022-09-07T00:58:28.595Z,2.00
2022-09-07T01:01:37.929Z,1.77
2022-09-07T01:04:46.443Z,2.03
2022-09-07T01:07:48.559Z,2.00
2022-09-07T01:10:56.915Z,1.70
2022-09-07T01:13:58.969Z,2.07
2022-09-07T01:17:18.476Z,2.13
2022-09-07T01:20:49.978Z,1.83
2022-09-07T01:24:05.272Z,2.10
2022-09-07T01:28:01.480Z,1.90
2022-09-07T01:31:13.493Z,2.40
2022-09-07T01:34:13.982Z,1.80
2022-09-07T01:37:17.251Z,1.90
2022-09-07T01:40:15.619Z,1.67
2022-09-07T01:43:17.092Z,1.60
2022-09-07T01:46:21.621Z,2.07
2022-09-07T01:49:19.797Z,2.00
2022-09-07T01:52:18.476Z,2.37
2022-09-07T01:55:17.986Z,2.13
2022-09-07T01:58:14.482Z,2.17
2022-09-07T02:01:12.212Z,2.30
2022-09-07T02:04:11.842Z,2.37
2022-09-07T02:07:13.121Z,1.80
2022-09-07T02:10:10.811Z,2.00
2022-09-07T02:13:07.948Z,2.03
2022-09-07T02:16:04.171Z,2.23
2022-09-07T02:19:02.484Z,1.83
2022-09-07T02:22:03.965Z,2.03
2022-09-07T02:25:02.069Z,1.97
2022-09-07T02:28:00.203Z,2.13
2022-09-07T02:30:54.553Z,1.93
2022-09-07T02:33:55.206Z,1.80
2022-09-07T02:36:53.010Z,2.10
2022-09-07T02:39:49.646Z,2.17
2022-09-07T02:42:44.960Z,2.43
2022-09-07T02:45:52.244Z,2.40
2022-09-07T02:48:53.889Z,2.60
2022-09-07T02:51:57.500Z,1.97
2022-09-07T02:55:06.178Z,1.83
2022-09-07T02:58:10.367Z,1.60
2022-09-07T03:01:15.190Z,1.90
2022-09-07T03:04:14.773Z,2.50
2022-09-07T03:07:14.223Z,2.00
2022-09-07T03:10:11.308Z,2.97
2022-09-07T03:13:05.797Z,2.70
2022-09-07T03:16:00.246Z,2.83
2022-09-07T03:18:55.219Z,2.57
2022-09-07T03:21:50.316Z,2.47
2022-09-07T03:24:45.115Z,2.47
2022-09-07T03:27:40.635Z,2.30
2022-09-07T03:30:35.664Z,2.67
2022-09-07T03:33:30.347Z,2.33
2022-09-07T03:36:24.967Z,1.93
2022-09-07T03:39:21.356Z,2.13
2022-09-07T03:42:16.305Z,2.53
2022-09-07T03:45:13.368Z,2.30
2022-09-07T03:48:07.900Z,2.40
2022-09-07T03:51:03.200Z,2.63
2022-09-07T03:53:57.879Z,2.13
2022-09-07T03:56:52.265Z,2.23
2022-09-07T03:59:47.717Z,2.30
2022-09-07T04:02:42.876Z,1.97
2022-09-07T04:05:36.532Z,2.20
2022-09-07T04:08:31.227Z,2.63
2022-09-07T04:11:25.074Z,2.50
2022-09-07T04:14:18.053Z,2.33
2022-09-07T04:17:11.098Z,2.97
2022-09-07T04:20:05.812Z,2.30
2022-09-07T04:23:00.901Z,2.33
2022-09-07T04:25:54.295Z,2.23
2022-09-07T04:28:48.954Z,2.07
2022-09-07T04:31:42.299Z,2.20
2022-09-07T04:34:35.864Z,2.00
2022-09-07T04:37:30.834Z,2.90
2022-09-07T04:40:23.973Z,2.50
2022-09-07T04:43:17.360Z,2.43
2022-09-07T04:46:18.905Z,2.13
2022-09-07T04:49:14.014Z,2.40
2022-09-07T04:52:07.332Z,2.77
2022-09-07T04:55:02.420Z,2.60
2022-09-07T04:57:57.132Z,2.23
2022-09-07T05:00:50.059Z,2.67
2022-09-07T05:03:43.155Z,2.60
2022-09-07T05:06:36.415Z,2.50
2022-09-07T05:09:30.460Z,2.43
2022-09-07T05:12:25.787Z,2.43
2022-09-07T05:15:19.376Z,2.27
2022-09-07T05:18:13.825Z,2.83
2022-09-07T05:21:17.411Z,2.23
2022-09-07T05:24:11.272Z,2.70
2022-09-07T05:27:11.108Z,2.53
2022-09-07T05:36:51.365Z,3.17
2022-09-07T05:39:45.366Z,2.30
2022-09-07T05:42:45.729Z,3.07
2022-09-07T05:49:55.252Z,3.50
2022-09-07T05:52:51.969Z,3.80
2022-09-07T05:55:39.173Z,2.87
2022-09-07T05:58:26.144Z,3.17
2022-09-07T06:01:14.533Z,3.00
2022-09-07T06:04:02.045Z,2.87
2022-09-07T06:07:11.029Z,3.13
2022-09-07T06:13:04.382Z,3.57
2022-09-07T06:15:51.041Z,3.27
2022-09-07T06:18:39.806Z,3.50
2022-09-07T06:21:26.474Z,3.47
2022-09-07T06:24:13.806Z,2.73
2022-09-07T06:27:05.324Z,3.47
2022-09-07T06:29:52.461Z,3.90
2022-09-07T06:32:42.948Z,3.50
2022-09-07T06:35:30.303Z,3.60
2022-09-07T06:38:17.575Z,3.20
2022-09-07T06:44:14.175Z,2.58
2022-09-07T06:49:53.630Z,2.90
2022-09-07T06:55:47.791Z,2.17
2022-09-07T06:58:36.173Z,1.83
2022-09-07T07:01:29.258Z,2.53
2022-09-07T07:04:16.152Z,1.52
2022-09-07T07:07:02.926Z,2.00
2022-09-07T07:09:52.092Z,1.80
2022-09-07T07:15:27.478Z,1.77
2022-09-07T07:18:21.113Z,1.75
2022-09-07T07:21:10.248Z,1.48
2022-09-07T07:23:57.021Z,1.50
2022-09-07T07:26:48.721Z,2.03
2022-09-07T07:29:35.689Z,1.40
2022-09-07T07:32:22.645Z,1.50
2022-09-07T07:35:11.914Z,1.27
2022-09-07T07:44:13.359Z,1.50
2022-09-07T07:47:00.166Z,1.67
2022-09-07T07:49:47.614Z,1.40
2022-09-07T07:53:41.128Z,1.23
2022-09-07T07:55:44.877Z,1.60
2022-09-07T07:58:33.066Z,1.58
2022-09-07T08:01:20.340Z,1.38
2022-09-07T08:04:07.202Z,1.20
2022-09-07T08:06:53.924Z,1.58
2022-09-07T08:09:43.778Z,1.70
2022-09-07T08:12:31.293Z,1.55
2022-09-07T08:15:18.204Z,1.83
2022-09-07T08:18:05.740Z,1.60
2022-09-07T08:20:52.582Z,1.50
2022-09-07T08:23:40.239Z,1.60
2022-09-07T08:26:28.857Z,1.38
2022-09-07T08:29:15.896Z,1.60
2022-09-07T08:32:02.750Z,1.45
2022-09-07T08:34:49.632Z,1.50
2022-09-07T08:37:36.821Z,1.50
2022-09-07T08:40:23.975Z,1.40
2022-09-07T08:43:20.415Z,1.50
2022-09-07T08:46:15.178Z,1.58
2022-09-07T08:49:04.737Z,1.60
2022-09-07T08:51:58.404Z,1.40
2022-09-07T08:54:54.720Z,1.55
2022-09-07T08:57:59.615Z,1.70
2022-09-07T09:01:30.734Z,1.60
2022-09-07T09:04:19.174Z,1.73
2022-09-07T09:07:18.691Z,1.40
2022-09-07T09:10:22.959Z,1.67
2022-09-07T09:13:16.984Z,1.70
2022-09-07T09:16:11.307Z,1.70
2022-09-07T09:19:21.911Z,1.60
2022-09-07T09:22:14.613Z,1.52
2022-09-07T09:25:08.220Z,1.85
2022-09-07T09:27:55.761Z,1.70
2022-09-07T09:30:43.557Z,2.08
2022-09-07T09:33:31.696Z,1.50
2022-09-07T09:36:26.780Z,1.50
2022-09-07T09:39:31.344Z,1.70
2022-09-07T09:42:24.483Z,1.50
2022-09-07T09:45:16.794Z,1.40
2022-09-07T09:48:10.703Z,1.45
2022-09-07T09:54:20.615Z,1.40
2022-09-07T09:57:17.373Z,1.40
2022-09-07T10:00:27.878Z,1.20
2022-09-07T10:06:27.466Z,1.27
2022-09-07T10:09:19.948Z,1.45
2022-09-07T10:12:08.873Z,1.58
2022-09-07T10:14:57.675Z,1.48
2022-09-07T10:17:49.804Z,1.75
2022-09-07T10:20:38.973Z,1.23
2022-09-07T10:23:29.122Z,1.30
2022-09-07T10:26:29.459Z,1.55
2022-09-07T10:29:19.270Z,1.65
2022-09-07T10:32:24.586Z,1.08
2022-09-07T10:35:19.049Z,1.00
2022-09-07T10:38:17.431Z,1.42
2022-09-07T10:41:08.441Z,1.20
2022-09-07T10:43:55.621Z,1.60
2022-09-07T10:46:59.077Z,1.55
2022-09-07T10:53:39.121Z,1.45
2022-09-07T10:56:23.430Z,1.30
2022-09-07T11:00:07.421Z,1.02
2022-09-07T11:06:08.395Z,1.83
2022-09-07T11:09:17.656Z,1.10
2022-09-07T11:12:10.411Z,1.45
2022-09-07T11:15:15.510Z,1.10
2022-09-07T11:18:08.234Z,1.33
2022-09-07T11:20:58.904Z,1.15
2022-09-07T11:23:51.451Z,1.38
2022-09-07T11:26:42.678Z,1.10
2022-09-07T11:29:37.527Z,1.05
2022-09-07T11:32:26.492Z,1.27
2022-09-07T11:35:20.277Z,1.20
2022-09-07T11:38:14.897Z,1.13
2022-09-07T11:41:14.822Z,1.27
2022-09-07T11:44:13.420Z,1.38
2022-09-07T11:47:05.755Z,1.45
2022-09-07T11:50:25.725Z,1.27
2022-09-07T11:53:36.736Z,1.23
2022-09-07T11:56:36.243Z,1.67
2022-09-07T11:59:46.223Z,1.25
2022-09-07T12:03:05.661Z,1.38
2022-09-07T12:06:09.707Z,1.30
2022-09-07T12:09:13.050Z,1.50
2022-09-07T12:12:22.541Z,1.40
2022-09-07T12:15:24.740Z,1.40
2022-09-07T12:18:27.817Z,1.42
2022-09-07T12:21:35.896Z,1.50
2022-09-07T12:24:43.441Z,1.33
2022-09-07T12:27:40.839Z,1.67
2022-09-07T12:30:57.107Z,1.58
2022-09-07T12:33:46.285Z,1.40
2022-09-07T12:36:43.332Z,1.40
2022-09-07T12:39:32.670Z,1.40
2022-09-07T12:42:32.773Z,1.50
2022-09-07T12:45:49.699Z,1.58
2022-09-07T12:48:57.907Z,1.20
2022-09-07T12:52:09.116Z,1.45
2022-09-07T12:55:29.619Z,1.52
2022-09-07T12:58:31.990Z,1.40
2022-09-07T13:01:31.079Z,1.50
2022-09-07T13:04:42.429Z,1.30
2022-09-07T13:07:48.486Z,1.60
2022-09-07T13:10:37.198Z,1.70
2022-09-07T13:20:23.635Z,1.40
2022-09-07T13:23:21.307Z,1.52
2022-09-07T13:26:09.693Z,1.70
2022-09-07T13:28:58.964Z,1.55
2022-09-07T13:31:53.763Z,1.40
2022-09-07T13:34:51.093Z,1.60
2022-09-07T13:37:48.456Z,1.40
2022-09-07T13:40:39.519Z,1.50
2022-09-07T13:43:26.306Z,1.55
2022-09-07T13:46:44.895Z,1.58
2022-09-07T13:50:00.184Z,1.75
2022-09-07T13:53:23.327Z,1.33
2022-09-07T13:56:23.459Z,1.50
2022-09-07T13:59:20.501Z,1.27
2022-09-07T14:02:23.675Z,1.60
2022-09-07T14:05:12.934Z,1.27
2022-09-07T14:08:01.222Z,1.60
2022-09-07T14:10:49.615Z,1.25
2022-09-07T14:13:36.411Z,1.50
2022-09-07T14:16:23.473Z,1.58
2022-09-07T14:19:12.658Z,1.50
2022-09-07T14:22:01.696Z,1.60
2022-09-07T14:24:51.875Z,1.42
2022-09-07T14:27:41.867Z,1.30
2022-09-07T14:30:34.173Z,1.45
2022-09-07T14:33:21.659Z,1.58
2022-09-07T14:36:23.543Z,1.35
2022-09-07T14:39:18.108Z,1.30
2022-09-07T14:42:07.773Z,1.40
2022-09-07T14:45:21.011Z,1.40
2022-09-07T14:48:14.738Z,1.20
2022-09-07T14:51:29.093Z,1.50
2022-09-07T14:54:19.964Z,1.60
2022-09-07T14:57:31.991Z,1.38
2022-09-07T15:00:30.818Z,1.40
2022-09-07T15:03:27.434Z,1.70
2022-09-07T15:07:00.941Z,1.55
2022-09-07T15:09:29.301Z,1.30
2022-09-07T15:12:37.961Z,1.00
2022-09-07T15:15:28.388Z,1.80
2022-09-07T15:18:56.794Z,1.50
2022-09-07T15:21:44.213Z,1.27
2022-09-07T15:24:31.158Z,1.15
2022-09-07T15:27:28.253Z,1.55
2022-09-07T15:30:17.592Z,1.40
2022-09-07T15:33:04.436Z,1.75
2022-09-07T15:35:51.571Z,1.20
2022-09-07T15:41:46.128Z,1.50
2022-09-07T15:44:34.475Z,1.48
2022-09-07T15:50:27.664Z,1.30
2022-09-07T15:56:21.830Z,1.48
2022-09-07T15:59:08.619Z,1.92
2022-09-07T16:01:58.139Z,1.20
2022-09-07T16:04:45.622Z,1.30
2022-09-07T16:10:41.130Z,1.40
2022-09-07T16:13:31.384Z,1.35
2022-09-07T16:16:18.865Z,1.40
2022-09-07T16:19:10.347Z,1.27
2022-09-07T16:21:57.829Z,1.40
2022-09-07T16:24:45.430Z,1.40
2022-09-07T16:27:33.821Z,1.45
2022-09-07T16:30:22.217Z,1.23
2022-09-07T16:33:09.610Z,1.58
2022-09-07T16:36:02.264Z,1.13
2022-09-07T16:38:49.543Z,1.35
2022-09-07T16:41:36.822Z,1.30
2022-09-07T16:44:23.617Z,1.30
2022-09-07T16:47:10.679Z,1.42
2022-09-07T16:49:57.789Z,1.23
2022-09-07T16:52:46.018Z,1.30
2022-09-07T16:55:33.225Z,1.60
2022-09-07T16:58:36.210Z,1.40
2022-09-07T17:01:26.076Z,1.88
2022-09-07T17:04:13.143Z,1.70
2022-09-07T17:07:00.264Z,1.40
2022-09-07T17:09:48.406Z,1.85
2022-09-07T17:12:35.210Z,1.50
2022-09-07T17:15:22.060Z,1.90
2022-09-07T17:18:09.043Z,1.75
2022-09-07T17:20:58.640Z,1.42
2022-09-07T17:23:51.896Z,1.80
2022-09-07T17:26:43.192Z,1.70
2022-09-07T17:29:37.015Z,2.30
2022-09-07T17:32:25.384Z,1.88
2022-09-07T17:35:12.829Z,1.70
2022-09-07T17:38:01.132Z,1.80
2022-09-07T17:40:48.492Z,1.70
2022-09-07T17:43:45.358Z,1.70
2022-09-07T17:46:44.921Z,1.65
2022-09-07T17:49:31.590Z,2.00
2022-09-07T17:52:18.423Z,1.98
2022-09-07T17:55:06.750Z,2.08
2022-09-07T17:57:53.935Z,1.90
2022-09-07T18:00:42.199Z,1.98
2022-09-07T18:03:34.372Z,2.20
2022-09-07T18:06:22.677Z,2.10
2022-09-07T18:09:09.439Z,2.00
2022-09-07T18:11:56.172Z,1.83
2022-09-07T18:14:43.746Z,1.83
2022-09-07T18:17:32.025Z,2.20
2022-09-07T18:20:19.219Z,2.33
2022-09-07T18:23:06.611Z,2.13
2022-09-07T18:26:00.757Z,2.03
2022-09-07T18:29:13.112Z,2.28
2022-09-07T18:31:58.603Z,2.13
2022-09-07T18:34:50.733Z,2.28
2022-09-07T18:37:39.516Z,2.13
2022-09-07T18:40:27.032Z,2.20
2022-09-07T18:43:13.781Z,2.17
2022-09-07T18:46:05.918Z,1.92
2022-09-07T18:48:55.217Z,2.33
2022-09-07T18:54:50.726Z,2.33
2022-09-07T18:57:38.396Z,1.80
2022-09-07T19:00:25.788Z,1.83
2022-09-07T19:03:12.839Z,2.03
2022-09-07T19:06:00.894Z,2.00
2022-09-07T19:08:49.069Z,1.80
2022-09-07T19:11:36.030Z,2.22
2022-09-07T19:14:22.790Z,1.98
2022-09-07T19:17:11.804Z,2.10
2022-09-07T19:19:59.120Z,2.47
2022-09-07T19:22:45.976Z,2.42
2022-09-07T19:25:34.426Z,2.70
2022-09-07T19:28:21.765Z,2.50
2022-09-07T19:31:09.114Z,2.55
2022-09-07T19:33:56.702Z,2.17
2022-09-07T19:36:43.745Z,3.03
2022-09-07T19:39:30.876Z,2.70
2022-09-07T19:42:21.582Z,2.63
2022-09-07T19:45:09.343Z,2.40
2022-09-07T19:47:56.373Z,2.05
2022-09-07T19:50:44.869Z,1.90
2022-09-07T19:53:33.307Z,2.28
2022-09-07T19:56:22.003Z,2.40
2022-09-07T19:59:10.153Z,2.72
2022-09-07T20:01:57.281Z,2.70
2022-09-07T20:04:44.618Z,2.47
2022-09-07T20:07:31.342Z,2.50
2022-09-07T20:10:18.693Z,2.90
2022-09-07T20:13:05.777Z,2.37
2022-09-07T20:15:53.928Z,2.30
2022-09-07T20:18:41.418Z,2.13
2022-09-07T20:21:29.255Z,2.28
2022-09-07T20:24:22.287Z,2.53
2022-09-07T20:27:09.396Z,2.42
2022-09-07T20:29:56.492Z,2.80
2022-09-07T20:32:44.995Z,1.92
2022-09-07T20:35:33.039Z,2.30
2022-09-07T20:38:21.402Z,2.10
2022-09-07T20:41:08.438Z,1.92
2022-09-07T20:43:57.063Z,2.20
2022-09-07T20:46:44.321Z,1.98
2022-09-07T20:49:32.986Z,2.30
2022-09-07T20:52:20.062Z,2.40
2022-09-07T20:55:08.200Z,2.38
2022-09-07T20:57:56.409Z,1.83
2022-09-07T21:00:43.649Z,2.25
2022-09-07T21:03:30.846Z,2.60
2022-09-07T21:06:21.128Z,2.17
2022-09-07T21:09:10.580Z,2.13
2022-09-07T21:11:57.728Z,1.80
2022-09-07T21:14:46.042Z,1.83
2022-09-07T21:17:33.138Z,2.47
2022-09-07T21:20:19.858Z,1.98
2022-09-07T21:23:08.324Z,1.90
2022-09-07T21:25:55.533Z,2.05
2022-09-07T21:28:42.392Z,2.25
2022-09-07T21:31:31.379Z,2.22
2022-09-07T21:34:18.411Z,1.93
2022-09-07T21:37:05.424Z,2.15
2022-09-07T21:39:53.950Z,1.80
2022-09-07T21:42:41.173Z,2.13
2022-09-07T21:45:27.915Z,2.00
2022-09-07T21:48:15.121Z,1.87
2022-09-07T21:51:02.027Z,1.87
2022-09-07T21:53:52.880Z,2.23
2022-09-07T21:56:46.367Z,1.80
2022-09-07T21:59:34.335Z,2.10
2022-09-07T22:02:21.499Z,2.10
2022-09-07T22:05:09.767Z,2.07
2022-09-07T22:07:56.685Z,2.00
2022-09-07T22:10:45.078Z,1.97
2022-09-07T22:13:34.033Z,2.17
2022-09-07T22:16:21.328Z,2.27
2022-09-07T22:19:08.183Z,1.87
2022-09-07T22:21:54.910Z,2.20
2022-09-07T22:24:41.333Z,1.97
2022-09-07T22:27:30.213Z,1.80
2022-09-07T22:30:18.404Z,2.20
2022-09-07T22:33:05.567Z,1.73
2022-09-07T22:35:52.013Z,1.80
2022-09-07T22:38:38.662Z,1.50
2022-09-07T22:41:27.205Z,1.63
2022-09-07T22:44:15.298Z,1.90
2022-09-07T22:47:03.551Z,1.83
2022-09-07T22:49:50.423Z,1.70
2022-09-07T22:52:37.370Z,1.80
2022-09-07T22:55:24.516Z,2.10
2022-09-07T22:58:11.529Z,1.90
2022-09-07T23:01:00.581Z,1.43
2022-09-07T23:03:49.947Z,1.80
2022-09-07T23:06:38.644Z,1.83
2022-09-07T23:09:25.650Z,2.00
2022-09-07T23:12:12.209Z,1.40
2022-09-07T23:14:59.024Z,1.87
2022-09-07T23:17:46.522Z,1.60
2022-09-07T23:20:35.137Z,1.57
2022-09-07T23:23:21.883Z,1.60
2022-09-07T23:26:09.177Z,2.17
2022-09-07T23:28:57.838Z,1.77
2022-09-07T23:31:46.353Z,1.80
2022-09-07T23:34:33.374Z,1.77
2022-09-07T23:37:21.791Z,1.33
2022-09-07T23:40:10.394Z,1.70
2022-09-07T23:42:57.227Z,1.53
2022-09-07T23:45:44.132Z,1.63
2022-09-07T23:48:31.119Z,1.87
2022-09-07T23:51:23.059Z,1.30
2022-09-07T23:54:12.605Z,1.10
2022-09-07T23:56:59.263Z,1.20
2022-09-07T23:59:48.296Z,1.40
